Wetterdaten: Woche 20.07.15 - 26.07.15 (KW30)
Datum Zeit Temp. Auen Feucht Auen Luftdruck Regen Richtung Windben
20.07.2015 00:00 18,1 C 91 % 1013,4 hPa 1,4 mm W-NW 5,8 km/h (1 Bft)
20.07.2015 01:00 18,0 C 91 % 1013,5 hPa 0,6 mm N-NO 2,1 km/h (1 Bft)
20.07.2015 02:00 18,1 C 92 % 1013,5 hPa 0,0 mm NW 1,2 km/h (1 Bft)
20.07.2015 03:00 18,3 C 92 % 1013,8 hPa 0,6 mm W 4,4 km/h (1 Bft)
20.07.2015 04:00 18,5 C 92 % 1014,2 hPa 0,0 mm W 2,1 km/h (1 Bft)
20.07.2015 05:00 18,4 C 92 % 1014,1 hPa 0,0 mm NW 0,7 km/h (0 Bft)
20.07.2015 06:00 18,5 C 93 % 1014,2 hPa 0,0 mm NW 0,4 km/h (0 Bft)
20.07.2015 07:00 18,8 C 93 % 1014,4 hPa 0,0 mm NW 1,6 km/h (1 Bft)
20.07.2015 08:00 20,0 C 90 % 1014,6 hPa 0,0 mm NO 2,0 km/h (1 Bft)
20.07.2015 09:00 20,7 C 89 % 1014,9 hPa 0,0 mm NO 1,6 km/h (1 Bft)
20.07.2015 10:00 22,9 C 81 % 1014,9 hPa 0,0 mm W-SW 5,3 km/h (1 Bft)
20.07.2015 11:00 24,9 C 71 % 1014,7 hPa 0,0 mm W 6,7 km/h (2 Bft)
20.07.2015 12:00 26,4 C 67 % 1014,4 hPa 0,0 mm W 6,2 km/h (2 Bft)
20.07.2015 13:00 27,9 C 60 % 1014,2 hPa 0,0 mm W 9,8 km/h (2 Bft)
20.07.2015 14:00 28,4 C 58 % 1013,8 hPa 0,0 mm W 8,8 km/h (2 Bft)
20.07.2015 15:00 28,2 C 58 % 1013,4 hPa 0,0 mm W 8,7 km/h (2 Bft)
20.07.2015 16:00 27,9 C 60 % 1013,2 hPa 0,0 mm W 7,5 km/h (2 Bft)
20.07.2015 17:00 27,8 C 58 % 1013,1 hPa 0,0 mm W-SW 8,2 km/h (2 Bft)
20.07.2015 18:00 27,1 C 61 % 1012,9 hPa 0,0 mm W-NW 5,2 km/h (1 Bft)
20.07.2015 19:00 26,1 C 65 % 1012,9 hPa 0,0 mm W 2,7 km/h (1 Bft)
20.07.2015 20:00 23,1 C 78 % 1013,2 hPa 0,0 mm W-NW 0,1 km/h (0 Bft)
20.07.2015 21:00 21,0 C 85 % 1014,0 hPa 0,0 mm W-NW 0,0 km/h (0 Bft)
20.07.2015 22:00 19,9 C 87 % 1014,5 hPa 0,0 mm W-NW 0,0 km/h (0 Bft)
20.07.2015 23:00 19,0 C 88 % 1014,7 hPa 0,0 mm W-NW 0,1 km/h (0 Bft)
21.07.2015 00:00 18,7 C 89 % 1014,8 hPa 0,0 mm W-NW 1,5 km/h (1 Bft)
21.07.2015 01:00 18,1 C 90 % 1014,8 hPa 0,0 mm W-NW 0,9 km/h (0 Bft)
21.07.2015 02:00 17,7 C 90 % 1014,6 hPa 0,0 mm W-NW 0,9 km/h (0 Bft)
21.07.2015 03:00 17,2 C 91 % 1014,6 hPa 0,0 mm W-NW 0,4 km/h (0 Bft)
21.07.2015 04:00 16,8 C 91 % 1014,6 hPa 0,0 mm W-NW 0,4 km/h (0 Bft)
21.07.2015 05:00 16,7 C 92 % 1014,5 hPa 0,0 mm W-NW 0,8 km/h (0 Bft)
21.07.2015 06:00 18,1 C 90 % 1014,8 hPa 0,0 mm W-NW 2,1 km/h (1 Bft)
21.07.2015 07:00 20,9 C 85 % 1014,9 hPa 0,0 mm W-NW 1,5 km/h (1 Bft)
21.07.2015 08:00 22,5 C 83 % 1015,0 hPa 0,0 mm O-NO 3,1 km/h (1 Bft)
21.07.2015 09:00 24,9 C 78 % 1014,9 hPa 0,0 mm O-SO 2,9 km/h (1 Bft)
21.07.2015 10:00 27,3 C 68 % 1014,7 hPa 0,0 mm SO 4,4 km/h (1 Bft)
21.07.2015 11:00 29,8 C 57 % 1014,4 hPa 0,0 mm W-SW 5,9 km/h (2 Bft)
21.07.2015 12:00 31,3 C 50 % 1014,4 hPa 0,0 mm W-SW 9,1 km/h (2 Bft)
21.07.2015 13:00 31,9 C 48 % 1014,3 hPa 0,0 mm W 10,9 km/h (2 Bft)
21.07.2015 14:00 32,1 C 45 % 1014,0 hPa 0,0 mm W 10,2 km/h (2 Bft)
21.07.2015 15:00 31,7 C 48 % 1013,7 hPa 0,0 mm W 10,1 km/h (2 Bft)
21.07.2015 16:00 31,1 C 49 % 1013,5 hPa 0,0 mm W-SW 8,3 km/h (2 Bft)
21.07.2015 17:00 30,8 C 47 % 1013,3 hPa 0,0 mm W-SW 6,4 km/h (2 Bft)
21.07.2015 18:00 30,6 C 46 % 1013,1 hPa 0,0 mm W-SW 6,5 km/h (2 Bft)
21.07.2015 19:00 28,1 C 63 % 1013,0 hPa 0,0 mm W-SW 0,9 km/h (0 Bft)
21.07.2015 20:00 24,8 C 75 % 1013,2 hPa 0,0 mm W-SW 0,0 km/h (0 Bft)
21.07.2015 21:00 22,3 C 82 % 1013,8 hPa 0,0 mm W-SW 0,0 km/h (0 Bft)
21.07.2015 22:00 20,8 C 85 % 1014,2 hPa 0,0 mm W-SW 0,0 km/h (0 Bft)
21.07.2015 23:00 20,2 C 85 % 1014,4 hPa 0,0 mm W-SW 1,1 km/h (0 Bft)
22.07.2015 00:00 19,2 C 87 % 1014,4 hPa 0,0 mm W-SW 0,7 km/h (0 Bft)
22.07.2015 01:00 18,5 C 89 % 1014,3 hPa 0,0 mm W-SW 0,5 km/h (0 Bft)
22.07.2015 02:00 17,9 C 89 % 1014,2 hPa 0,0 mm W-SW 0,1 km/h (0 Bft)
22.07.2015 03:00 17,4 C 90 % 1014,1 hPa 0,0 mm W-SW 0,3 km/h (0 Bft)
22.07.2015 04:00 16,9 C 91 % 1013,8 hPa 0,0 mm W-SW 0,1 km/h (0 Bft)
22.07.2015 05:00 16,6 C 91 % 1013,7 hPa 0,0 mm W-SW 0,4 km/h (0 Bft)
22.07.2015 06:00 18,1 C 89 % 1013,6 hPa 0,0 mm W-SW 0,7 km/h (0 Bft)
22.07.2015 07:00 21,0 C 85 % 1013,6 hPa 0,0 mm W-SW 0,9 km/h (0 Bft)
22.07.2015 08:00 23,4 C 81 % 1013,5 hPa 0,0 mm O-SO 5,7 km/h (1 Bft)
22.07.2015 09:00 25,4 C 77 % 1013,0 hPa 0,0 mm SO 6,5 km/h (2 Bft)
22.07.2015 10:00 27,4 C 71 % 1012,6 hPa 0,0 mm SO 6,8 km/h (2 Bft)
22.07.2015 11:00 28,8 C 66 % 1012,2 hPa 0,0 mm O-NO 10,1 km/h (2 Bft)
22.07.2015 12:00 29,8 C 66 % 1011,6 hPa 0,0 mm O-SO 10,6 km/h (2 Bft)
22.07.2015 13:00 30,6 C 62 % 1011,0 hPa 0,0 mm O-SO 12,5 km/h (3 Bft)
22.07.2015 14:00 31,3 C 60 % 1010,2 hPa 0,0 mm O-SO 11,3 km/h (2 Bft)
22.07.2015 15:00 31,7 C 56 % 1009,3 hPa 0,0 mm O-SO 12,5 km/h (3 Bft)
22.07.2015 16:00 32,0 C 52 % 1008,6 hPa 0,0 mm O-NO 10,9 km/h (2 Bft)
22.07.2015 17:00 31,8 C 49 % 1008,3 hPa 0,0 mm O 9,0 km/h (2 Bft)
22.07.2015 18:00 29,3 C 62 % 1008,2 hPa 0,0 mm O 2,1 km/h (1 Bft)
22.07.2015 19:00 26,6 C 66 % 1008,9 hPa 1,2 mm W-NW 15,0 km/h (3 Bft)
22.07.2015 20:00 19,2 C 85 % 1010,8 hPa 18,6 mm W 15,6 km/h (3 Bft)
22.07.2015 21:00 19,1 C 88 % 1011,2 hPa 0,4 mm W-SW 7,6 km/h (2 Bft)
22.07.2015 22:00 19,3 C 91 % 1011,7 hPa 0,2 mm W 8,6 km/h (2 Bft)
22.07.2015 23:00 19,4 C 90 % 1012,1 hPa 0,0 mm W 4,8 km/h (1 Bft)
23.07.2015 00:00 19,2 C 91 % 1013,0 hPa 0,0 mm W 2,9 km/h (1 Bft)
23.07.2015 01:00 18,8 C 92 % 1013,2 hPa 0,0 mm W 2,9 km/h (1 Bft)
23.07.2015 02:00 18,2 C 92 % 1012,9 hPa 0,0 mm N-NW 0,7 km/h (0 Bft)
23.07.2015 03:00 18,4 C 92 % 1012,5 hPa 0,2 mm NW 0,4 km/h (0 Bft)
23.07.2015 04:00 18,1 C 93 % 1012,3 hPa 0,0 mm NW 1,5 km/h (1 Bft)
23.07.2015 05:00 17,7 C 93 % 1012,7 hPa 0,0 mm W 6,4 km/h (2 Bft)
23.07.2015 06:00 18,1 C 93 % 1013,0 hPa 0,0 mm W 4,3 km/h (1 Bft)
23.07.2015 07:00 20,4 C 90 % 1013,2 hPa 0,0 mm W 2,7 km/h (1 Bft)
23.07.2015 08:00 22,5 C 84 % 1013,3 hPa 0,0 mm W 5,1 km/h (1 Bft)
23.07.2015 09:00 25,2 C 72 % 1013,7 hPa 0,0 mm W 14,6 km/h (3 Bft)
23.07.2015 10:00 26,0 C 69 % 1014,1 hPa 0,0 mm W 15,0 km/h (3 Bft)
23.07.2015 11:00 25,9 C 70 % 1014,2 hPa 0,0 mm W 15,6 km/h (3 Bft)
23.07.2015 12:00 26,8 C 68 % 1013,7 hPa 0,0 mm W 13,7 km/h (3 Bft)
23.07.2015 13:00 27,8 C 63 % 1013,2 hPa 0,0 mm W-SW 12,9 km/h (3 Bft)
23.07.2015 14:00 28,0 C 61 % 1012,8 hPa 0,0 mm W 11,3 km/h (2 Bft)
23.07.2015 15:00 27,5 C 62 % 1012,4 hPa 0,0 mm W 7,5 km/h (2 Bft)
23.07.2015 16:00 27,3 C 63 % 1012,1 hPa 0,0 mm W-SW 11,7 km/h (2 Bft)
23.07.2015 17:00 26,3 C 68 % 1012,0 hPa 0,0 mm W-SW 10,9 km/h (2 Bft)
23.07.2015 18:00 26,0 C 69 % 1012,0 hPa 0,0 mm W-SW 10,1 km/h (2 Bft)
23.07.2015 19:00 25,3 C 73 % 1012,2 hPa 0,0 mm W 9,8 km/h (2 Bft)
23.07.2015 20:00 23,9 C 77 % 1012,8 hPa 0,0 mm W 8,3 km/h (2 Bft)
23.07.2015 21:00 22,8 C 81 % 1013,5 hPa 0,0 mm W 4,8 km/h (1 Bft)
23.07.2015 22:00 22,2 C 82 % 1013,5 hPa 0,0 mm W-NW 4,4 km/h (1 Bft)
23.07.2015 23:00 21,8 C 83 % 1013,5 hPa 0,0 mm W 3,6 km/h (1 Bft)
24.07.2015 00:00 20,9 C 87 % 1013,4 hPa 0,0 mm W 0,1 km/h (0 Bft)
24.07.2015 01:00 20,5 C 87 % 1013,3 hPa 0,0 mm W 0,4 km/h (0 Bft)
24.07.2015 02:00 20,1 C 89 % 1012,7 hPa 0,0 mm W 0,1 km/h (0 Bft)
24.07.2015 03:00 19,6 C 89 % 1012,3 hPa 0,0 mm W 2,4 km/h (1 Bft)
24.07.2015 04:00 18,5 C 90 % 1012,3 hPa 0,0 mm W 0,8 km/h (0 Bft)
24.07.2015 05:00 17,6 C 90 % 1012,1 hPa 0,0 mm W 0,1 km/h (0 Bft)
24.07.2015 06:00 19,2 C 88 % 1011,7 hPa 0,0 mm W 2,3 km/h (1 Bft)
24.07.2015 07:00 20,3 C 87 % 1011,3 hPa 0,0 mm O-SO 2,8 km/h (1 Bft)
24.07.2015 08:00 21,2 C 86 % 1011,1 hPa 0,0 mm O 4,1 km/h (1 Bft)
24.07.2015 09:00 21,7 C 85 % 1010,8 hPa 0,0 mm O-SO 4,5 km/h (1 Bft)
24.07.2015 10:00 22,6 C 82 % 1010,6 hPa 0,0 mm O-SO 7,5 km/h (2 Bft)
24.07.2015 11:00 22,9 C 82 % 1010,3 hPa 0,0 mm O 7,5 km/h (2 Bft)
24.07.2015 12:00 24,0 C 80 % 1009,7 hPa 0,0 mm SO 7,5 km/h (2 Bft)
24.07.2015 13:00 25,2 C 77 % 1009,0 hPa 0,0 mm SO 6,7 km/h (2 Bft)
24.07.2015 14:00 25,7 C 77 % 1008,4 hPa 0,0 mm SO 6,0 km/h (2 Bft)
24.07.2015 15:00 26,2 C 77 % 1007,7 hPa 0,0 mm SO 7,1 km/h (2 Bft)
24.07.2015 16:00 26,6 C 76 % 1006,8 hPa 0,0 mm O 5,7 km/h (1 Bft)
24.07.2015 17:00 26,7 C 76 % 1006,1 hPa 0,0 mm O 8,6 km/h (2 Bft)
24.07.2015 18:00 26,7 C 76 % 1005,5 hPa 0,0 mm O-NO 5,6 km/h (1 Bft)
24.07.2015 19:00 25,4 C 80 % 1005,1 hPa 0,0 mm NO 2,4 km/h (1 Bft)
24.07.2015 20:00 23,3 C 85 % 1005,1 hPa 0,0 mm S-SO 0,1 km/h (0 Bft)
24.07.2015 21:00 22,4 C 86 % 1005,4 hPa 0,0 mm S-SO 3,3 km/h (1 Bft)
24.07.2015 22:00 22,3 C 86 % 1005,6 hPa 0,0 mm W-NW 0,3 km/h (0 Bft)
24.07.2015 23:00 21,1 C 88 % 1005,2 hPa 0,0 mm W-NW 0,4 km/h (0 Bft)
25.07.2015 00:00 20,4 C 89 % 1005,0 hPa 0,0 mm W-NW 1,6 km/h (1 Bft)
25.07.2015 01:00 20,6 C 88 % 1004,4 hPa 0,0 mm W-NW 2,4 km/h (1 Bft)
25.07.2015 02:00 21,5 C 80 % 1005,4 hPa 0,0 mm W-SW 16,0 km/h (3 Bft)
25.07.2015 03:00 21,2 C 74 % 1005,9 hPa 0,0 mm W 9,3 km/h (2 Bft)
25.07.2015 04:00 19,2 C 80 % 1005,8 hPa 0,0 mm W-NW 1,7 km/h (1 Bft)
25.07.2015 05:00 17,6 C 87 % 1005,8 hPa 0,0 mm W-NW 0,3 km/h (0 Bft)
25.07.2015 06:00 18,4 C 86 % 1005,8 hPa 0,0 mm W-NW 1,9 km/h (1 Bft)
25.07.2015 07:00 19,0 C 86 % 1007,0 hPa 0,4 mm W 5,1 km/h (1 Bft)
25.07.2015 08:00 19,7 C 87 % 1007,5 hPa 0,0 mm W 4,3 km/h (1 Bft)
25.07.2015 09:00 21,0 C 84 % 1007,8 hPa 0,0 mm W 4,8 km/h (1 Bft)
25.07.2015 10:00 21,9 C 81 % 1007,4 hPa 0,0 mm O-NO 7,4 km/h (2 Bft)
25.07.2015 11:00 22,1 C 81 % 1007,1 hPa 0,0 mm O-SO 5,7 km/h (1 Bft)
25.07.2015 12:00 22,9 C 76 % 1007,2 hPa 0,0 mm N-NO 3,5 km/h (1 Bft)
25.07.2015 13:00 24,8 C 66 % 1007,1 hPa 0,0 mm NO 5,2 km/h (1 Bft)
25.07.2015 14:00 25,4 C 64 % 1006,9 hPa 0,0 mm W 7,0 km/h (2 Bft)
25.07.2015 15:00 24,8 C 66 % 1006,9 hPa 1,4 mm W-SW 14,2 km/h (3 Bft)
25.07.2015 16:00 19,6 C 86 % 1008,3 hPa 3,2 mm W 8,7 km/h (2 Bft)
25.07.2015 17:00 18,2 C 90 % 1009,3 hPa 4,6 mm W 14,9 km/h (3 Bft)
25.07.2015 18:00 17,2 C 89 % 1010,7 hPa 1,2 mm W 12,2 km/h (2 Bft)
25.07.2015 19:00 16,4 C 88 % 1011,7 hPa 0,2 mm W 6,4 km/h (2 Bft)
25.07.2015 20:00 16,1 C 88 % 1012,3 hPa 0,0 mm W 5,3 km/h (1 Bft)
25.07.2015 21:00 15,7 C 87 % 1013,5 hPa 0,0 mm W 0,7 km/h (0 Bft)
25.07.2015 22:00 15,4 C 89 % 1014,3 hPa 0,0 mm W 0,1 km/h (0 Bft)
25.07.2015 23:00 15,3 C 89 % 1015,2 hPa 0,0 mm W-NW 1,5 km/h (1 Bft)
26.07.2015 00:00 15,3 C 86 % 1016,1 hPa 0,0 mm W 4,4 km/h (1 Bft)
26.07.2015 01:00 14,9 C 81 % 1016,6 hPa 0,0 mm W 7,1 km/h (2 Bft)
26.07.2015 02:00 14,2 C 77 % 1016,9 hPa 0,0 mm W 5,9 km/h (2 Bft)
26.07.2015 03:00 13,1 C 78 % 1017,0 hPa 0,0 mm W-NW 4,0 km/h (1 Bft)
26.07.2015 04:00 11,5 C 85 % 1017,2 hPa 0,0 mm W-NW 1,5 km/h (1 Bft)
26.07.2015 05:00 10,7 C 88 % 1017,5 hPa 0,0 mm W-SW 1,1 km/h (0 Bft)
26.07.2015 06:00 11,5 C 88 % 1017,6 hPa 0,0 mm W-SW 4,0 km/h (1 Bft)
26.07.2015 07:00 13,6 C 83 % 1017,7 hPa 0,0 mm W 2,3 km/h (1 Bft)
26.07.2015 08:00 16,6 C 67 % 1017,8 hPa 0,0 mm W 8,0 km/h (2 Bft)
26.07.2015 09:00 17,8 C 62 % 1017,0 hPa 0,0 mm W 10,4 km/h (2 Bft)
26.07.2015 10:00 18,9 C 61 % 1016,4 hPa 0,0 mm W-SW 9,8 km/h (2 Bft)
26.07.2015 11:00 19,8 C 57 % 1015,7 hPa 0,0 mm W-SW 10,6 km/h (2 Bft)
26.07.2015 12:00 20,8 C 55 % 1014,9 hPa 0,0 mm W 11,3 km/h (2 Bft)
26.07.2015 13:00 20,7 C 58 % 1014,1 hPa 0,0 mm W 6,4 km/h (2 Bft)
26.07.2015 14:00 20,4 C 60 % 1013,0 hPa 0,0 mm O-SO 9,8 km/h (2 Bft)
26.07.2015 15:00 20,7 C 58 % 1011,5 hPa 0,0 mm SO 9,1 km/h (2 Bft)
26.07.2015 16:00 20,7 C 60 % 1010,6 hPa 0,0 mm NO 8,3 km/h (2 Bft)
26.07.2015 17:00 20,6 C 62 % 1009,9 hPa 0,0 mm O 9,0 km/h (2 Bft)
26.07.2015 18:00 20,1 C 61 % 1009,4 hPa 0,0 mm O-NO 7,5 km/h (2 Bft)
26.07.2015 19:00 19,4 C 66 % 1008,7 hPa 0,0 mm O-SO 4,8 km/h (1 Bft)
26.07.2015 20:00 17,4 C 73 % 1008,2 hPa 0,0 mm O 0,5 km/h (0 Bft)
26.07.2015 21:00 16,0 C 80 % 1008,0 hPa 0,0 mm O 0,8 km/h (0 Bft)
26.07.2015 22:00 15,7 C 85 % 1007,9 hPa 0,0 mm S 0,3 km/h (0 Bft)
26.07.2015 23:00 16,0 C 83 % 1008,1 hPa 0,0 mm W 4,1 km/h (1 Bft)
Min-Datum _ 26.07.15 21.07.15 25.07.15 - - 20.07.15
_ Min-Zeit 05:50 14:20 01:30 - - 00:45
Minimum _ 10,3 C 41 % 1004,3 hPa - - 0,0 km/h (0 Bft)
Max-Datum _ 21.07.15 20.07.15 26.07.15 22.07.15 - 22.07.15
_ Max-Zeit 13:50 06:10 07:55 20:10 - 20:00
Maximum _ 32,8 C 93 % 1017,8 hPa 18,6 mm - 38,6 km/h
S (5 Bft)
Durchschnitt _ 21,8 C 78 % 1012,0 hPa #34,2 mm W 5,2 km/h (1 Bft)